Time;durP1;ratioP1;P1;durP2;ratioP2;P2;SDS_P1;SDS_P2;PMS_P1;PMS_P2;Temp;Humidity;BMP_temperature;BMP_pressure;BME280_temperature;BME280_humidity;BME280_pressure;Samples;Min_cycle;Max_cycle;Signal;HPM_P1;HPM_P2
2022/08/07 00:01:13;;;;;;;;;;;19.00;74.20;;;;;;5071700;28;20361;-61
2022/08/07 00:03:38;;;;;;;;;;;18.80;74.20;;;;;;5071392;28;19912;-56
2022/08/07 00:06:04;;;;;;;;;;;18.50;74.40;;;;;;5072263;28;19909;-61
2022/08/07 00:08:30;;;;;;;;;;;18.40;74.60;;;;;;5070830;28;19912;-59
2022/08/07 00:10:55;;;;;;;;;;;18.50;74.30;;;;;;5071890;28;20356;-58
2022/08/07 00:13:21;;;;;;;;;;;18.50;74.40;;;;;;5071902;28;19909;-59
2022/08/07 00:15:47;;;;;;;;;;;18.50;74.40;;;;;;5071692;28;19908;-59
2022/08/07 00:18:14;;;;;;;;;;;18.40;74.40;;;;;;5088683;28;20363;-58
2022/08/07 00:20:40;;;;;;;;;;;18.30;74.90;;;;;;5091673;28;19908;-59
2022/08/07 00:23:06;;;;;;;;;;;18.40;75.30;;;;;;5092197;28;19908;-59
2022/08/07 00:25:32;;;;;;;;;;;18.30;75.40;;;;;;5092305;28;20018;-59
2022/08/07 00:27:57;;;;;;;;;;;18.40;74.90;;;;;;5092450;28;19920;-58
2022/08/07 00:30:23;;;;;;;;;;;18.30;74.10;;;;;;5095539;28;19916;-60
2022/08/07 00:32:49;;;;;;;;;;;18.30;74.40;;;;;;5092717;28;19913;-59
2022/08/07 00:35:16;;;;;;;;;;;18.30;73.50;;;;;;5075194;28;19920;-58
2022/08/07 00:37:42;;;;;;;;;;;18.30;73.30;;;;;;5074920;28;19909;-60
2022/08/07 00:40:07;;;;;;;;;;;18.30;72.90;;;;;;5075579;28;19912;-60
2022/08/07 00:42:33;;;;;;;;;;;18.40;73.30;;;;;;5075478;28;19909;-60
2022/08/07 00:44:59;;;;;;;;;;;18.20;74.40;;;;;;5075221;28;20007;-57
2022/08/07 00:47:24;;;;;;;;;;;18.20;74.50;;;;;;5074844;28;20364;-59
2022/08/07 00:49:50;;;;;;;;;;;18.10;74.80;;;;;;5075753;28;20284;-59
2022/08/07 00:52:16;;;;;;;;;;;18.20;74.80;;;;;;5074781;28;19967;-62
2022/08/07 00:54:41;;;;;;;;;;;18.10;75.00;;;;;;5075560;28;19954;-59
2022/08/07 00:57:08;;;;;;;;;;;18.10;75.30;;;;;;5075470;28;20327;-59
2022/08/07 00:59:36;;;;;;;;;;;18.10;75.90;;;;;;5076132;28;19912;-60
2022/08/07 01:02:03;;;;;;;;;;;18.00;75.30;;;;;;5075253;28;19974;-59
2022/08/07 01:04:30;;;;;;;;;;;18.00;76.00;;;;;;5074631;28;20240;-60
2022/08/07 01:06:56;;;;;;;;;;;18.00;76.00;;;;;;5074517;28;19969;-61
2022/08/07 01:09:22;;;;;;;;;;;18.00;76.60;;;;;;5074599;28;19920;-58
2022/08/07 01:11:49;;;;;;;;;;;18.00;76.00;;;;;;5074070;28;19909;-60
2022/08/07 01:14:15;;;;;;;;;;;17.90;76.40;;;;;;5074084;28;19909;-60
2022/08/07 01:16:40;;;;;;;;;;;17.80;76.60;;;;;;5074374;28;19958;-58
2022/08/07 01:19:06;;;;;;;;;;;17.70;76.60;;;;;;5074333;28;19917;-59
2022/08/07 01:21:32;;;;;;;;;;;17.70;76.50;;;;;;5074722;28;19908;-59
2022/08/07 01:23:58;;;;;;;;;;;17.60;76.90;;;;;;5074331;28;19913;-59
2022/08/07 01:26:24;;;;;;;;;;;17.50;77.40;;;;;;5074405;28;19919;-54
2022/08/07 01:28:50;;;;;;;;;;;17.30;77.50;;;;;;5074102;28;19912;-60
2022/08/07 01:31:16;;;;;;;;;;;17.10;78.10;;;;;;5074527;28;19915;-60
2022/08/07 01:33:42;;;;;;;;;;;17.00;78.50;;;;;;5071258;28;19908;-60
2022/08/07 01:36:11;;;;;;;;;;;17.00;78.70;;;;;;5073637;28;19920;-58
2022/08/07 01:38:37;;;;;;;;;;;17.00;78.80;;;;;;5074064;28;19913;-57
2022/08/07 01:41:03;;;;;;;;;;;16.80;79.00;;;;;;5072971;28;19956;-56
2022/08/07 01:43:29;;;;;;;;;;;16.80;78.80;;;;;;5073784;28;19956;-59
2022/08/07 01:45:55;;;;;;;;;;;16.80;79.20;;;;;;5074135;28;20506;-59
2022/08/07 01:48:21;;;;;;;;;;;16.80;79.50;;;;;;5074253;28;19913;-58
2022/08/07 01:51:07;;;;;;;;;;;16.90;80.10;;;;;;5074180;28;20437;-57
2022/08/07 01:53:34;;;;;;;;;;;17.00;79.70;;;;;;5072614;28;19908;-58
2022/08/07 01:56:06;;;;;;;;;;;17.10;79.70;;;;;;5073759;28;19912;-59
2022/08/07 01:58:33;;;;;;;;;;;17.20;79.80;;;;;;5073538;28;19916;-60
2022/08/07 02:01:01;;;;;;;;;;;17.20;79.80;;;;;;5073467;28;19951;-59
2022/08/07 02:03:27;;;;;;;;;;;17.20;80.20;;;;;;5073160;28;20012;-60
2022/08/07 02:06:01;;;;;;;;;;;17.20;80.60;;;;;;5073878;28;19908;-60
2022/08/07 02:08:28;;;;;;;;;;;17.20;80.90;;;;;;5073204;28;19966;-60
2022/08/07 02:10:55;;;;;;;;;;;17.20;81.10;;;;;;5073445;28;19970;-58
2022/08/07 02:13:25;;;;;;;;;;;17.30;81.50;;;;;;5073672;28;19961;-60
2022/08/07 02:15:52;;;;;;;;;;;17.30;81.80;;;;;;5071994;28;19912;-60
2022/08/07 02:18:17;;;;;;;;;;;17.20;83.30;;;;;;5073249;28;20439;-60
2022/08/07 02:20:44;;;;;;;;;;;17.10;82.70;;;;;;5073213;28;19909;-60
2022/08/07 02:23:10;;;;;;;;;;;17.20;82.60;;;;;;5072962;28;19991;-61
2022/08/07 02:25:37;;;;;;;;;;;17.10;82.90;;;;;;5073222;28;19919;-57
2022/08/07 02:28:03;;;;;;;;;;;17.00;82.50;;;;;;5073207;28;20011;-59
2022/08/07 02:30:29;;;;;;;;;;;16.80;82.70;;;;;;5072548;28;19912;-58
2022/08/07 02:32:56;;;;;;;;;;;16.80;83.40;;;;;;5073481;28;20374;-60
2022/08/07 02:35:22;;;;;;;;;;;16.90;83.20;;;;;;5074313;28;19951;-62
2022/08/07 02:37:48;;;;;;;;;;;16.90;82.20;;;;;;5074040;28;19919;-56
2022/08/07 02:40:14;;;;;;;;;;;16.90;82.20;;;;;;5073167;28;19916;-59
2022/08/07 02:42:40;;;;;;;;;;;16.80;82.70;;;;;;5073572;28;19909;-60
2022/08/07 02:45:07;;;;;;;;;;;16.70;83.20;;;;;;5072464;28;19913;-59
2022/08/07 02:47:32;;;;;;;;;;;16.40;83.40;;;;;;5072615;28;19976;-57
2022/08/07 02:49:58;;;;;;;;;;;16.30;83.90;;;;;;5072915;28;19947;-60
2022/08/07 02:52:38;;;;;;;;;;;16.30;84.60;;;;;;5072467;28;19916;-60
2022/08/07 02:55:06;;;;;;;;;;;16.30;84.20;;;;;;5073111;28;19916;-59
2022/08/07 02:57:34;;;;;;;;;;;16.50;83.90;;;;;;5072387;28;19908;-60
2022/08/07 03:00:00;;;;;;;;;;;16.60;83.80;;;;;;5071279;28;20380;-59
2022/08/07 03:02:26;;;;;;;;;;;16.60;83.50;;;;;;5072669;28;19915;-58
2022/08/07 03:04:52;;;;;;;;;;;16.60;83.30;;;;;;5072462;28;19912;-57
2022/08/07 03:07:18;;;;;;;;;;;16.50;83.60;;;;;;5072187;28;19916;-59
2022/08/07 03:09:44;;;;;;;;;;;16.40;84.40;;;;;;5072641;28;19915;-60
2022/08/07 03:12:10;;;;;;;;;;;16.40;84.00;;;;;;5071692;28;19912;-59
2022/08/07 03:14:36;;;;;;;;;;;16.30;84.50;;;;;;5072744;28;19912;-58
2022/08/07 03:17:02;;;;;;;;;;;16.40;84.20;;;;;;5071899;28;19912;-59
2022/08/07 03:19:27;;;;;;;;;;;16.40;84.60;;;;;;5071805;28;19956;-58
2022/08/07 03:21:54;;;;;;;;;;;16.50;84.80;;;;;;5072340;28;20015;-59
2022/08/07 03:24:20;;;;;;;;;;;16.40;86.10;;;;;;5071905;28;19956;-59
2022/08/07 03:26:49;;;;;;;;;;;16.30;86.50;;;;;;5072264;28;19967;-60
2022/08/07 03:29:15;;;;;;;;;;;16.20;85.30;;;;;;5072111;28;19923;-59
2022/08/07 03:31:41;;;;;;;;;;;16.20;85.10;;;;;;5071683;28;20336;-55
2022/08/07 03:34:09;;;;;;;;;;;16.30;84.90;;;;;;5069680;28;19944;-60
2022/08/07 03:36:36;;;;;;;;;;;16.30;86.20;;;;;;5072145;28;19913;-59
2022/08/07 03:39:04;;;;;;;;;;;16.20;86.60;;;;;;5071834;28;19967;-59
2022/08/07 03:41:30;;;;;;;;;;;16.10;87.50;;;;;;5070730;28;19958;-58
2022/08/07 03:43:56;;;;;;;;;;;16.20;87.80;;;;;;5071910;28;20279;-59
2022/08/07 03:46:22;;;;;;;;;;;16.30;87.20;;;;;;5071990;28;19954;-59
2022/08/07 03:48:48;;;;;;;;;;;16.20;87.20;;;;;;5072227;28;19912;-58
2022/08/07 03:51:14;;;;;;;;;;;16.10;88.50;;;;;;5072527;28;20050;-59
2022/08/07 03:53:39;;;;;;;;;;;16.00;88.60;;;;;;5071835;28;19962;-57
2022/08/07 03:56:05;;;;;;;;;;;16.00;87.40;;;;;;5071744;28;19919;-59
2022/08/07 03:58:31;;;;;;;;;;;16.00;86.00;;;;;;5071471;28;19913;-60
2022/08/07 04:00:58;;;;;;;;;;;16.00;86.90;;;;;;5071387;28;20371;-58
2022/08/07 04:03:24;;;;;;;;;;;15.90;87.60;;;;;;5070923;28;19916;-60
2022/08/07 04:05:49;;;;;;;;;;;15.90;87.60;;;;;;5070881;28;19916;-59
2022/08/07 04:08:15;;;;;;;;;;;15.90;86.70;;;;;;5071350;28;19923;-59
2022/08/07 04:10:41;;;;;;;;;;;15.80;86.70;;;;;;5071535;28;19912;-58
2022/08/07 04:13:10;;;;;;;;;;;15.90;86.40;;;;;;5071836;28;19908;-58
2022/08/07 04:15:35;;;;;;;;;;;15.90;86.60;;;;;;5072199;28;19931;-59
2022/08/07 04:18:01;;;;;;;;;;;16.00;86.00;;;;;;5072874;28;20374;-58
2022/08/07 04:20:27;;;;;;;;;;;16.00;85.90;;;;;;5072273;28;19933;-59
2022/08/07 04:22:53;;;;;;;;;;;16.10;86.10;;;;;;5072258;28;20050;-57
2022/08/07 04:25:21;;;;;;;;;;;16.00;86.70;;;;;;5072009;28;19912;-59
2022/08/07 04:27:46;;;;;;;;;;;16.00;87.20;;;;;;5071709;28;19919;-61
2022/08/07 04:30:12;;;;;;;;;;;16.10;86.60;;;;;;5071242;28;19908;-58
2022/08/07 04:32:38;;;;;;;;;;;16.00;86.50;;;;;;5070513;28;19989;-59
2022/08/07 04:35:05;;;;;;;;;;;15.80;86.90;;;;;;5069769;28;19921;-58
2022/08/07 04:37:31;;;;;;;;;;;15.80;87.10;;;;;;5072752;28;19943;-60
2022/08/07 04:39:56;;;;;;;;;;;15.80;86.90;;;;;;5071402;28;20360;-59
2022/08/07 04:42:26;;;;;;;;;;;15.90;87.00;;;;;;5071831;28;19923;-60
2022/08/07 04:44:53;;;;;;;;;;;15.90;87.70;;;;;;5065847;28;20364;-58
2022/08/07 04:47:26;;;;;;;;;;;16.00;86.80;;;;;;5072588;28;19924;-60
2022/08/07 04:50:04;;;;;;;;;;;15.90;86.90;;;;;;5070012;28;19916;-59
2022/08/07 04:52:33;;;;;;;;;;;16.00;86.70;;;;;;5070595;28;19908;-59
2022/08/07 04:55:19;;;;;;;;;;;15.90;87.00;;;;;;5068148;28;19913;-59
2022/08/07 04:57:57;;;;;;;;;;;15.90;87.10;;;;;;5065081;28;19923;-58
2022/08/07 05:00:29;;;;;;;;;;;15.90;86.90;;;;;;5069540;28;20571;-59
2022/08/07 05:02:57;;;;;;;;;;;15.90;87.20;;;;;;5069991;28;19919;-60
2022/08/07 05:05:30;;;;;;;;;;;15.90;87.10;;;;;;5070148;28;19930;-58
2022/08/07 05:08:06;;;;;;;;;;;15.90;87.70;;;;;;5070714;28;20364;-58
2022/08/07 05:10:44;;;;;;;;;;;16.00;87.20;;;;;;5070898;28;19912;-61
2022/08/07 05:13:15;;;;;;;;;;;16.10;87.70;;;;;;5071463;28;19909;-59
2022/08/07 05:15:44;;;;;;;;;;;15.80;88.40;;;;;;5072803;28;20371;-57
2022/08/07 05:18:21;;;;;;;;;;;15.90;88.40;;;;;;5073838;28;19977;-59
2022/08/07 05:20:49;;;;;;;;;;;16.00;88.00;;;;;;5074590;28;19967;-59
2022/08/07 05:23:17;;;;;;;;;;;15.90;87.90;;;;;;5074969;28;19912;-58
2022/08/07 05:25:42;;;;;;;;;;;15.80;88.20;;;;;;5073556;28;19931;-58
2022/08/07 05:28:09;;;;;;;;;;;15.90;88.00;;;;;;5072826;28;20360;-60
2022/08/07 05:30:35;;;;;;;;;;;16.00;88.40;;;;;;5073355;28;19908;-60
2022/08/07 05:33:01;;;;;;;;;;;16.00;88.40;;;;;;5072185;28;19913;-59
2022/08/07 05:35:27;;;;;;;;;;;16.10;87.80;;;;;;5074224;28;19920;-60
2022/08/07 05:37:53;;;;;;;;;;;16.10;87.60;;;;;;5074460;28;20490;-58
2022/08/07 05:40:19;;;;;;;;;;;16.20;87.30;;;;;;5073984;28;19919;-60
2022/08/07 05:42:45;;;;;;;;;;;16.20;87.00;;;;;;5074019;28;20019;-59
2022/08/07 05:45:11;;;;;;;;;;;16.20;86.90;;;;;;5074168;28;19970;-59
2022/08/07 05:47:37;;;;;;;;;;;16.30;87.00;;;;;;5072414;28;19916;-59
2022/08/07 05:50:03;;;;;;;;;;;16.20;86.90;;;;;;5073959;28;19909;-60
2022/08/07 05:52:29;;;;;;;;;;;16.40;86.40;;;;;;5071335;28;19912;-59
2022/08/07 05:54:54;;;;;;;;;;;16.20;87.90;;;;;;5073490;28;19915;-56
2022/08/07 05:57:20;;;;;;;;;;;16.50;86.50;;;;;;5072688;28;19936;-57
2022/08/07 05:59:46;;;;;;;;;;;16.60;86.30;;;;;;5073600;28;20030;-58
2022/08/07 06:02:16;;;;;;;;;;;16.70;85.70;;;;;;5072166;28;19916;-57
2022/08/07 06:04:45;;;;;;;;;;;16.70;85.90;;;;;;5073442;28;19912;-59
2022/08/07 06:07:11;;;;;;;;;;;16.80;85.60;;;;;;5073626;28;19991;-51
2022/08/07 06:09:36;;;;;;;;;;;16.90;85.30;;;;;;5074199;28;20339;-57
2022/08/07 06:12:02;;;;;;;;;;;16.90;85.50;;;;;;5073797;28;19912;-57
2022/08/07 06:14:28;;;;;;;;;;;17.00;85.50;;;;;;5073853;28;20360;-55
2022/08/07 06:16:53;;;;;;;;;;;17.20;84.90;;;;;;5071501;28;19916;-53
2022/08/07 06:19:19;;;;;;;;;;;17.30;84.30;;;;;;5073664;28;20008;-55
2022/08/07 06:21:45;;;;;;;;;;;17.50;83.80;;;;;;5072521;28;19932;-57
2022/08/07 06:24:11;;;;;;;;;;;17.70;83.10;;;;;;5073399;28;19916;-57
2022/08/07 06:26:40;;;;;;;;;;;17.80;83.00;;;;;;5073710;28;19915;-56
2022/08/07 06:29:05;;;;;;;;;;;17.90;82.00;;;;;;5073466;28;19950;-55
2022/08/07 06:31:31;;;;;;;;;;;18.00;81.40;;;;;;5073807;28;19913;-56
2022/08/07 06:33:57;;;;;;;;;;;18.10;81.40;;;;;;5072358;28;19913;-54
2022/08/07 06:36:25;;;;;;;;;;;18.30;81.00;;;;;;5073078;28;19913;-54
2022/08/07 06:38:51;;;;;;;;;;;18.40;80.40;;;;;;5073145;28;19919;-56
2022/08/07 06:41:22;;;;;;;;;;;18.60;79.50;;;;;;5071404;28;19912;-53
2022/08/07 06:43:49;;;;;;;;;;;18.80;79.00;;;;;;5072892;28;20395;-55
2022/08/07 06:46:15;;;;;;;;;;;18.70;78.00;;;;;;5072575;28;19917;-58
2022/08/07 06:48:43;;;;;;;;;;;18.80;77.70;;;;;;5072257;28;19912;-57
2022/08/07 06:51:23;;;;;;;;;;;18.90;77.60;;;;;;5096651;22;19925;-54
2022/08/07 06:53:49;;;;;;;;;;;18.90;76.40;;;;;;5043877;28;19924;-54
2022/08/07 06:56:15;;;;;;;;;;;19.10;75.90;;;;;;5032745;28;19913;-58
2022/08/07 06:58:41;;;;;;;;;;;19.10;75.50;;;;;;5032465;28;19913;-54
2022/08/07 07:01:08;;;;;;;;;;;19.20;75.30;;;;;;5040900;28;20292;-54
2022/08/07 07:03:34;;;;;;;;;;;19.30;74.60;;;;;;5041926;28;19920;-53
2022/08/07 07:05:59;;;;;;;;;;;19.40;74.40;;;;;;5049381;28;19920;-54
2022/08/07 07:08:26;;;;;;;;;;;19.50;73.90;;;;;;5044119;28;19921;-52
2022/08/07 07:10:54;;;;;;;;;;;19.50;73.40;;;;;;5030458;28;20362;-57
2022/08/07 07:13:33;;;;;;;;;;;19.50;73.40;;;;;;5032112;28;19909;-55
2022/08/07 07:16:02;;;;;;;;;;;19.60;71.90;;;;;;5037341;28;19940;-57
2022/08/07 07:18:27;;;;;;;;;;;19.50;72.20;;;;;;5043835;28;19917;-58
2022/08/07 07:20:58;;;;;;;;;;;19.50;72.30;;;;;;5051819;28;19932;-55
2022/08/07 07:23:24;;;;;;;;;;;19.70;72.40;;;;;;5052067;28;19909;-57
2022/08/07 07:25:51;;;;;;;;;;;19.80;72.00;;;;;;5051810;28;19917;-55
2022/08/07 07:28:33;;;;;;;;;;;19.80;71.50;;;;;;5045533;28;20004;-58
2022/08/07 07:31:02;;;;;;;;;;;19.80;71.40;;;;;;5049407;28;19920;-57
2022/08/07 07:33:29;;;;;;;;;;;19.80;72.10;;;;;;5042150;28;19916;-54
2022/08/07 07:35:56;;;;;;;;;;;19.90;71.90;;;;;;5044701;28;19932;-58
2022/08/07 07:38:24;;;;;;;;;;;20.00;71.50;;;;;;5046983;28;19947;-56
2022/08/07 07:40:50;;;;;;;;;;;20.10;71.50;;;;;;5039910;28;19914;-52
2022/08/07 07:43:16;;;;;;;;;;;20.20;71.40;;;;;;5032065;28;20273;-55
2022/08/07 07:45:44;;;;;;;;;;;20.30;71.30;;;;;;5052172;28;19952;-54
2022/08/07 07:48:14;;;;;;;;;;;20.40;71.10;;;;;;5050652;28;20305;-54
2022/08/07 07:50:43;;;;;;;;;;;20.40;70.80;;;;;;5045456;28;19909;-59
2022/08/07 07:53:09;;;;;;;;;;;20.40;70.70;;;;;;5052027;28;19944;-57
2022/08/07 07:55:35;;;;;;;;;;;20.40;70.80;;;;;;5034452;28;19917;-55
2022/08/07 07:58:01;;;;;;;;;;;20.40;70.70;;;;;;5032236;28;19913;-53
2022/08/07 08:00:31;;;;;;;;;;;20.50;70.20;;;;;;5046597;28;19914;-53
2022/08/07 08:03:08;;;;;;;;;;;20.40;70.50;;;;;;5032355;28;19913;-54
2022/08/07 08:05:38;;;;;;;;;;;20.50;70.60;;;;;;5032066;28;20007;-51
2022/08/07 08:08:04;;;;;;;;;;;20.60;70.40;;;;;;5037703;28;20013;-55
2022/08/07 08:10:30;;;;;;;;;;;20.70;70.50;;;;;;5050795;28;19912;-56
2022/08/07 08:12:57;;;;;;;;;;;20.80;70.30;;;;;;5049844;28;19913;-54
2022/08/07 08:15:22;;;;;;;;;;;20.90;70.00;;;;;;5035303;28;19920;-53
2022/08/07 08:17:48;;;;;;;;;;;21.00;70.20;;;;;;5031665;28;19913;-56
2022/08/07 08:20:17;;;;;;;;;;;21.00;69.70;;;;;;5040975;28;20365;-58
2022/08/07 08:28:21;;;;;;;;;;;21.10;69.20;;;;;;5031170;28;19914;-55
2022/08/07 08:30:49;;;;;;;;;;;21.20;69.20;;;;;;5031034;28;20280;-54
2022/08/07 08:33:17;;;;;;;;;;;21.10;67.80;;;;;;5031420;28;19913;-58
2022/08/07 08:35:50;;;;;;;;;;;21.10;68.40;;;;;;5032812;28;19913;-54
2022/08/07 08:38:17;;;;;;;;;;;21.30;68.30;;;;;;5031218;28;20012;-55
2022/08/07 08:41:05;;;;;;;;;;;21.50;67.90;;;;;;5031314;28;19909;-57
2022/08/07 08:43:44;;;;;;;;;;;21.50;68.20;;;;;;5032675;28;19913;-55
2022/08/07 08:46:17;;;;;;;;;;;21.60;67.70;;;;;;5051434;28;19908;-55
2022/08/07 08:48:43;;;;;;;;;;;21.70;67.30;;;;;;5051202;28;19917;-59
2022/08/07 08:51:31;;;;;;;;;;;21.70;66.50;;;;;;5056219;28;20012;-59
2022/08/07 08:53:57;;;;;;;;;;;21.80;66.10;;;;;;5052623;28;19943;-59
2022/08/07 08:56:35;;;;;;;;;;;21.90;66.30;;;;;;5045844;28;20355;-54
2022/08/07 08:59:04;;;;;;;;;;;21.80;65.20;;;;;;5035618;28;19913;-56
2022/08/07 09:01:48;;;;;;;;;;;21.90;64.60;;;;;;5049777;28;19952;-58
2022/08/07 09:04:21;;;;;;;;;;;21.70;63.80;;;;;;5053161;28;20431;-58
2022/08/07 09:06:53;;;;;;;;;;;21.70;63.60;;;;;;5067984;28;19997;-59
2022/08/07 09:09:40;;;;;;;;;;;21.80;63.50;;;;;;5054886;28;19944;-56
2022/08/07 09:12:06;;;;;;;;;;;22.10;63.20;;;;;;5055012;28;20287;-51
2022/08/07 09:14:35;;;;;;;;;;;22.10;63.20;;;;;;5054413;28;20383;-53
2022/08/07 09:17:12;;;;;;;;;;;22.10;63.10;;;;;;5054693;28;20284;-55
2022/08/07 09:19:56;;;;;;;;;;;21.90;63.10;;;;;;5052732;28;19917;-54
2022/08/07 09:22:27;;;;;;;;;;;21.90;63.50;;;;;;5038894;28;19920;-57
2022/08/07 09:24:56;;;;;;;;;;;22.10;63.60;;;;;;5055259;28;20376;-55
2022/08/07 09:27:32;;;;;;;;;;;22.20;63.00;;;;;;5053765;28;19991;-55
2022/08/07 09:30:05;;;;;;;;;;;22.30;62.70;;;;;;5055220;28;19916;-54
2022/08/07 09:32:34;;;;;;;;;;;22.50;62.30;;;;;;5055535;28;19932;-57
2022/08/07 09:34:59;;;;;;;;;;;22.50;61.90;;;;;;5051769;28;19908;-55
2022/08/07 09:37:37;;;;;;;;;;;22.50;61.70;;;;;;5054587;28;19954;-58
2022/08/07 09:40:25;;;;;;;;;;;22.40;62.00;;;;;;5051811;28;20288;-56
2022/08/07 09:42:59;;;;;;;;;;;22.30;61.80;;;;;;5049001;28;20272;-60
2022/08/07 09:45:44;;;;;;;;;;;22.30;61.60;;;;;;5053837;28;20434;-54
2022/08/07 09:48:28;;;;;;;;;;;22.40;61.80;;;;;;5049952;28;20063;-54
2022/08/07 09:51:12;;;;;;;;;;;22.30;61.80;;;;;;5055002;28;19913;-57
2022/08/07 09:53:39;;;;;;;;;;;22.30;61.70;;;;;;5054206;28;19921;-56
2022/08/07 09:56:14;;;;;;;;;;;22.30;61.50;;;;;;5054430;28;19972;-56
2022/08/07 09:58:58;;;;;;;;;;;22.30;61.30;;;;;;5053615;28;20358;-53
2022/08/07 10:01:50;;;;;;;;;;;22.50;60.00;;;;;;5051475;28;19913;-54
2022/08/07 10:04:24;;;;;;;;;;;22.80;59.60;;;;;;5052129;28;19982;-58
2022/08/07 10:07:01;;;;;;;;;;;23.00;59.80;;;;;;5044785;28;19919;-59
2022/08/07 10:09:39;;;;;;;;;;;23.30;59.30;;;;;;5052412;28;19919;-59
2022/08/07 10:12:11;;;;;;;;;;;23.40;58.70;;;;;;5055058;28;19968;-59
2022/08/07 10:14:49;;;;;;;;;;;23.40;58.90;;;;;;5053101;28;19921;-57
2022/08/07 10:17:33;;;;;;;;;;;23.30;59.60;;;;;;5066254;28;19916;-59
2022/08/07 10:20:07;;;;;;;;;;;23.40;59.40;;;;;;5050067;28;19913;-60
2022/08/07 10:23:01;;;;;;;;;;;23.50;59.10;;;;;;5047754;28;19909;-61
2022/08/07 10:25:32;;;;;;;;;;;23.60;58.20;;;;;;5054022;28;19919;-58
2022/08/07 10:28:09;;;;;;;;;;;23.60;58.10;;;;;;5053071;28;19919;-58
2022/08/07 10:30:42;;;;;;;;;;;23.60;57.40;;;;;;5053044;28;19916;-59
2022/08/07 10:33:26;;;;;;;;;;;23.50;57.20;;;;;;5053297;28;20015;-57
2022/08/07 10:35:57;;;;;;;;;;;23.60;57.90;;;;;;5034124;28;19916;-60
2022/08/07 10:38:29;;;;;;;;;;;23.60;57.50;;;;;;5033372;28;19909;-58
2022/08/07 10:41:13;;;;;;;;;;;23.60;57.30;;;;;;5033940;28;19916;-58
2022/08/07 10:43:42;;;;;;;;;;;23.50;57.80;;;;;;5035855;28;19920;-59
2022/08/07 10:46:12;;;;;;;;;;;23.70;57.50;;;;;;5052890;28;19958;-57
2022/08/07 10:48:47;;;;;;;;;;;23.80;56.20;;;;;;5053494;28;20282;-58
2022/08/07 10:51:31;;;;;;;;;;;23.70;56.60;;;;;;5053915;28;20337;-60
2022/08/07 10:53:59;;;;;;;;;;;23.70;56.80;;;;;;5052108;28;19924;-59
2022/08/07 10:56:39;;;;;;;;;;;23.90;56.70;;;;;;5048143;28;19917;-59
2022/08/07 10:59:05;;;;;;;;;;;23.80;56.50;;;;;;5050815;28;20247;-57
2022/08/07 11:01:36;;;;;;;;;;;23.90;57.10;;;;;;5049507;28;19956;-58
2022/08/07 11:04:10;;;;;;;;;;;24.00;57.80;;;;;;5050080;28;19917;-55
2022/08/07 11:06:48;;;;;;;;;;;24.00;57.10;;;;;;5050104;28;19998;-58
2022/08/07 11:09:17;;;;;;;;;;;24.10;56.70;;;;;;5046667;28;20007;-55
2022/08/07 11:11:46;;;;;;;;;;;24.00;56.00;;;;;;5052059;28;20003;-53
2022/08/07 11:14:47;;;;;;;;;;;23.80;55.80;;;;;;5052414;28;19979;-53
2022/08/07 11:17:23;;;;;;;;;;;23.70;56.30;;;;;;5049265;28;19909;-54
2022/08/07 11:19:51;;;;;;;;;;;23.80;57.00;;;;;;5034602;28;20003;-53
2022/08/07 11:22:19;;;;;;;;;;;24.00;56.40;;;;;;5033060;28;19909;-55
2022/08/07 11:24:50;;;;;;;;;;;24.20;56.40;;;;;;5049525;28;20368;-57
2022/08/07 11:27:16;;;;;;;;;;;24.20;56.00;;;;;;5049472;28;19919;-53
2022/08/07 11:29:44;;;;;;;;;;;24.10;55.80;;;;;;5046694;28;20128;-55
2022/08/07 11:32:15;;;;;;;;;;;24.00;56.20;;;;;;5046923;28;19948;-56
2022/08/07 11:34:54;;;;;;;;;;;24.10;56.40;;;;;;5044011;28;19916;-57
2022/08/07 11:37:25;;;;;;;;;;;24.00;56.00;;;;;;5044256;28;19968;-55
2022/08/07 11:40:04;;;;;;;;;;;23.70;55.90;;;;;;5049952;28;19919;-53
2022/08/07 11:42:39;;;;;;;;;;;23.70;56.40;;;;;;5042341;28;19961;-53
2022/08/07 11:45:23;;;;;;;;;;;23.80;56.50;;;;;;5035312;28;19959;-54
2022/08/07 11:47:49;;;;;;;;;;;23.90;56.50;;;;;;5031852;28;19975;-56
2022/08/07 11:50:14;;;;;;;;;;;24.20;55.80;;;;;;5030837;28;19909;-54
2022/08/07 11:52:57;;;;;;;;;;;24.20;56.00;;;;;;5031727;28;19996;-57
2022/08/07 11:55:28;;;;;;;;;;;24.00;56.70;;;;;;5032464;28;19920;-52
2022/08/07 11:58:12;;;;;;;;;;;24.00;56.40;;;;;;5031994;28;19916;-57
2022/08/07 12:00:44;;;;;;;;;;;24.20;56.40;;;;;;5032231;28;19909;-55
2022/08/07 12:03:42;;;;;;;;;;;24.30;55.80;;;;;;5031681;28;19910;-56
2022/08/07 12:06:23;;;;;;;;;;;24.50;55.70;;;;;;5030267;28;19916;-56
2022/08/07 12:08:52;;;;;;;;;;;24.60;55.00;;;;;;5031921;28;19975;-53
2022/08/07 12:11:17;;;;;;;;;;;24.60;55.00;;;;;;5032094;28;20056;-56
2022/08/07 12:13:52;;;;;;;;;;;24.50;54.70;;;;;;5032125;28;20327;-57
2022/08/07 12:16:27;;;;;;;;;;;24.40;55.30;;;;;;5032215;28;19917;-56
2022/08/07 12:18:56;;;;;;;;;;;24.40;55.00;;;;;;5030692;28;19921;-56
2022/08/07 12:21:33;;;;;;;;;;;24.60;55.20;;;;;;5032453;28;20008;-54
2022/08/07 12:24:17;;;;;;;;;;;24.80;54.70;;;;;;5036097;28;19913;-52
2022/08/07 12:27:07;;;;;;;;;;;24.80;54.60;;;;;;5056227;28;19908;-50
2022/08/07 12:29:55;;;;;;;;;;;24.80;54.10;;;;;;5055929;28;19912;-49
2022/08/07 12:32:24;;;;;;;;;;;24.80;53.50;;;;;;5053865;28;19913;-52
2022/08/07 12:34:50;;;;;;;;;;;24.60;54.30;;;;;;5049229;28;20287;-51
2022/08/07 12:37:17;;;;;;;;;;;24.60;54.10;;;;;;5054820;28;19909;-51
2022/08/07 12:39:47;;;;;;;;;;;24.80;54.40;;;;;;5055115;28;19920;-54
2022/08/07 12:42:14;;;;;;;;;;;24.80;54.40;;;;;;5055690;28;19999;-57
2022/08/07 12:44:42;;;;;;;;;;;24.80;54.60;;;;;;5044840;28;20004;-53
2022/08/07 12:47:26;;;;;;;;;;;24.70;54.60;;;;;;5034808;28;19914;-57
2022/08/07 12:50:10;;;;;;;;;;;24.70;54.70;;;;;;5035734;28;19916;-57
2022/08/07 12:52:51;;;;;;;;;;;24.90;54.30;;;;;;5036255;28;20020;-58
2022/08/07 12:55:20;;;;;;;;;;;25.10;55.00;;;;;;5037721;28;20026;-54
2022/08/07 12:57:46;;;;;;;;;;;25.30;53.90;;;;;;5040317;28;20755;-56
2022/08/07 13:00:12;;;;;;;;;;;25.50;53.20;;;;;;5053762;28;19915;-56
2022/08/07 13:03:00;;;;;;;;;;;25.40;53.20;;;;;;5055154;28;19999;-57
2022/08/07 13:05:44;;;;;;;;;;;25.40;53.20;;;;;;5053981;28;20031;-50
2022/08/07 13:08:32;;;;;;;;;;;25.40;54.00;;;;;;5052949;28;20467;-49
2022/08/07 13:11:18;;;;;;;;;;;25.30;53.00;;;;;;5041736;28;19920;-51
2022/08/07 13:13:54;;;;;;;;;;;25.40;52.40;;;;;;5041227;28;19998;-58
2022/08/07 13:16:20;;;;;;;;;;;25.40;52.60;;;;;;5035324;28;20398;-56
2022/08/07 13:18:52;;;;;;;;;;;25.50;52.70;;;;;;5035463;28;19960;-52
2022/08/07 13:21:23;;;;;;;;;;;25.60;52.50;;;;;;5037066;28;20423;-50
2022/08/07 13:23:51;;;;;;;;;;;25.70;52.60;;;;;;5045130;28;19916;-54
2022/08/07 13:26:23;;;;;;;;;;;25.80;52.00;;;;;;5050727;28;19913;-52
2022/08/07 13:28:52;;;;;;;;;;;25.80;52.70;;;;;;5045690;28;19917;-52
2022/08/07 13:31:34;;;;;;;;;;;26.00;52.90;;;;;;5050275;28;19909;-51
2022/08/07 13:34:20;;;;;;;;;;;26.40;53.20;;;;;;5051139;28;19959;-51
2022/08/07 13:36:55;;;;;;;;;;;26.60;51.90;;;;;;5053140;28;20319;-54
2022/08/07 13:39:36;;;;;;;;;;;26.80;52.60;;;;;;5055091;28;20260;-54
2022/08/07 13:42:03;;;;;;;;;;;27.00;51.80;;;;;;5054172;28;19909;-48
2022/08/07 13:44:31;;;;;;;;;;;27.20;51.30;;;;;;5053155;28;20384;-50
2022/08/07 13:46:58;;;;;;;;;;;27.40;50.90;;;;;;5054055;28;19929;-59
2022/08/07 13:49:25;;;;;;;;;;;27.50;50.30;;;;;;5054052;28;19936;-52
2022/08/07 13:51:52;;;;;;;;;;;27.50;50.10;;;;;;5053869;28;19913;-50
2022/08/07 13:54:19;;;;;;;;;;;27.00;50.80;;;;;;5054930;28;19987;-51
2022/08/07 13:56:45;;;;;;;;;;;27.10;50.60;;;;;;5070192;28;19909;-49
2022/08/07 13:59:11;;;;;;;;;;;27.10;51.40;;;;;;5055705;28;19913;-50
2022/08/07 14:01:42;;;;;;;;;;;27.40;50.90;;;;;;5055531;28;19954;-49
2022/08/07 14:04:09;;;;;;;;;;;27.50;50.10;;;;;;5055631;28;19984;-51
2022/08/07 14:06:36;;;;;;;;;;;27.70;50.20;;;;;;5054174;28;19908;-52
2022/08/07 14:09:03;;;;;;;;;;;27.70;49.90;;;;;;5051364;28;19913;-54
2022/08/07 14:11:29;;;;;;;;;;;27.90;50.60;;;;;;5048173;28;19924;-54
2022/08/07 14:14:02;;;;;;;;;;;27.90;49.70;;;;;;5054612;28;19916;-54
2022/08/07 14:16:38;;;;;;;;;;;28.00;50.60;;;;;;5056688;28;19999;-56
2022/08/07 14:19:10;;;;;;;;;;;28.20;50.40;;;;;;5056102;28;19916;-55
2022/08/07 14:21:40;;;;;;;;;;;28.40;49.80;;;;;;5056035;28;19931;-50
2022/08/07 14:24:07;;;;;;;;;;;28.10;49.50;;;;;;5055466;28;19924;-51
2022/08/07 14:26:38;;;;;;;;;;;28.00;49.70;;;;;;5055271;28;19923;-51
2022/08/07 14:29:07;;;;;;;;;;;28.20;48.40;;;;;;5056486;28;19923;-52
2022/08/07 14:31:33;;;;;;;;;;;28.00;49.30;;;;;;5055314;28;19909;-55
2022/08/07 14:33:59;;;;;;;;;;;28.00;49.80;;;;;;5055075;28;19917;-54
2022/08/07 14:36:25;;;;;;;;;;;28.20;50.00;;;;;;5052847;28;20284;-51
2022/08/07 14:38:51;;;;;;;;;;;28.50;49.30;;;;;;5055022;28;19951;-55